• Join FlightAware (Why Join?)
  • Login
  • US Flag 
03:17PM EDT


 

Airport Tracker/Info


-or-


 

Live Flight TrackerFlight Track Log ✈ N50KC ✈ 07-Jun-2013 ✈ KLAX - KTEB

Flight Track Log - Related Links

Times and Time Zones

All times are in EDT time to prevent confusion due to time zone crossing. See the N50KC flight status page for this flight to view local times or setup timezone preferences in your user account.

Time Position Orientation Groundspeed Altitude Reporting Facility
EDT Latitude Longitude Course Direction KTS MPH feet Rate Location/Type
12:25PM 33.9353 -118.4347 253° West 177 204 2,400  Level Los Angeles Center
12:26PM 33.9153 -118.5139 253° West 254 292 5,200 2,700 Climbing Los Angeles Center
12:27PM 33.8500 -118.5333 194° South 275 316 8,100 2,700 Climbing Los Angeles Center
12:28PM 33.8694 -118.4597 72° East 280 322 10,900 2,460 Climbing Los Angeles Center
12:29PM 33.9378 -118.4108 31° Northeast 311 358 13,200 2,160 Climbing Los Angeles Center
12:30PM 33.9986 -118.3211 51° Northeast 342 394 15,400 2,280 Climbing Los Angeles Center
12:32PM 34.0708 -118.1936 56° Northeast 377 434 18,000 2,220 Climbing Los Angeles Center
12:33PM 34.1411 -118.0817 53° Northeast 409 471 20,000 1,980 Climbing Los Angeles Center
12:34PM 34.2189 -117.9714 50° Northeast 425 489 22,100 2,040 Climbing Los Angeles Center
12:35PM 34.2972 -117.8558 51° Northeast 438 504 24,300 2,160 Climbing Los Angeles Center
12:36PM 34.3836 -117.7289 50° Northeast 452 520 26,700 2,160 Climbing Los Angeles Center
12:37PM 34.4653 -117.6075 51° Northeast 464 534 28,800 1,980 Climbing Los Angeles Center
12:38PM 34.5492 -117.4833 51° Northeast 475 547 30,800 1,740 Climbing Los Angeles Center
12:39PM 34.6339 -117.3578 51° Northeast 482 555 32,500 1,080 Climbing Los Angeles Center
12:40PM 34.7197 -117.2311 50° Northeast 490 564 33,100 1,080 Climbing Los Angeles Center
12:41PM 34.8203 -117.0800 51° Northeast 484 557 34,800 1,500 Climbing Los Angeles Center
12:42PM 34.9042 -116.9553 51° Northeast 479 551 36,300 1,440 Climbing Los Angeles Center
12:43PM 34.9892 -116.8278 51° Northeast 486 559 37,800 1,440 Climbing Los Angeles Center
12:44PM 35.0908 -116.6750 51° Northeast 488 562 39,300 1,320 Climbing Los Angeles Center
12:45PM 35.1739 -116.5506 51° Northeast 481 554 40,600 1,200 Climbing Los Angeles Center
12:46PM 35.2542 -116.4306 51° Northeast 463 533 41,900 1,200 Climbing Los Angeles Center
12:47PM 35.3333 -116.3108 51° Northeast 455 524 43,100 1,020 Climbing Los Angeles Center
12:48PM 35.4108 -116.1922 51° Northeast 449 517 44,100 780 Climbing Los Angeles Center
12:49PM 35.4708 -116.0972 52° Northeast 443 510 44,800 420 Climbing Los Angeles Center
12:50PM 35.5819 -115.9311 51° Northeast 450 518 45,000 60 Climbing Los Angeles Center
12:51PM 35.6550 -115.8197 51° Northeast 456 525 45,000  Level Los Angeles Center
12:52PM 35.7508 -115.6706 52° Northeast 462 532 45,000  Level Los Angeles Center
12:53PM 35.8450 -115.5242 52° Northeast 458 527 45,000  Level Los Angeles Center
12:55PM 35.9247 -115.4017 51° Northeast 461 531 45,000  Level Los Angeles Center
12:56PM 36.0181 -115.2569 51° Northeast 452 520 45,000  Level Los Angeles Center
12:57PM 36.0981 -115.1383 50° Northeast 452 520 45,000  Level Los Angeles Center
12:58PM 36.2022 -115.0028 46° Northeast 456 525 45,000  Level Los Angeles Center
12:59PM 36.2906 -114.8903 46° Northeast 458 527 45,000  Level Los Angeles Center
01:00PM 36.3792 -114.7772 46° Northeast 458 527 45,000  Level Los Angeles Center
01:01PM 36.4664 -114.6636 46° Northeast 456 525 45,000  Level Los Angeles Center
01:02PM 36.5544 -114.5511 46° Northeast 453 521 45,000  Level Los Angeles Center
01:03PM 36.6575 -114.4142 47° Northeast 452 520 45,000  Level Los Angeles Center
01:04PM 36.7394 -114.2964 49° Northeast 449 517 45,000  Level Los Angeles Center
01:05PM 36.8133 -114.1681 54° Northeast 455 524 45,000  Level Los Angeles Center
01:06PM 36.8789 -114.0344 58° Northeast 452 520 45,000  Level Los Angeles Center
01:07PM 36.9503 -113.8814 60° Northeast 449 517 45,000  Level Los Angeles Center
01:08PM 37.0147 -113.7472 59° Northeast 450 518 45,000  Level Los Angeles Center
01:09PM 37.0783 -113.6142 59° Northeast 446 513 45,000  Level Los Angeles Center
01:10PM 37.1419 -113.4797 59° Northeast 449 517 45,000  Level Los Angeles Center
01:11PM 37.2036 -113.3458 60° Northeast 445 512 45,000  Level Los Angeles Center
01:12PM 37.2778 -113.1869 60° Northeast 442 509 45,000  Level Los Angeles Center
01:14PM 37.3547 -113.0253 59° Northeast 449 517 45,000  Level Los Angeles Center
01:14PM 37.4019 -112.9197 61° Northeast 447 514 45,000  Level Salt Lake Center
01:15PM 37.4625 -112.7867 60° Northeast 447 514 45,000  Level Salt Lake Center
01:16PM 37.5261 -112.6558 58° Northeast 448 516 45,000  Level Salt Lake Center
01:17PM 37.6000 -112.4992 59° Northeast 440 506 45,000  Level Salt Lake Center
01:18PM 37.6553 -112.3633 63° Northeast 439 505 45,000  Level Salt Lake Center
01:20PM 37.6997 -112.2156 69° East 447 514 45,000  Level Salt Lake Center
01:21PM 37.7422 -112.0692 70° East 446 513 45,000  Level Salt Lake Center
01:22PM 37.7839 -111.9228 70° East 444 511 45,000  Level Salt Lake Center
01:23PM 37.8283 -111.7756 69° East 448 516 45,000  Level Salt Lake Center
01:24PM 37.8792 -111.5997 70° East 447 514 45,000  Level Salt Lake Center
01:25PM 37.9214 -111.4544 70° East 442 509 45,000  Level Salt Lake Center
01:26PM 37.9642 -111.3081 70° East 442 509 45,000  Level Salt Lake Center
01:27PM 38.0061 -111.1622 70° East 441 507 45,000  Level Salt Lake Center
01:28PM 38.0475 -111.0161 70° East 443 510 45,000  Level Salt Lake Center
01:29PM 38.0933 -110.8503 71° East 440 506 45,000  Level Salt Lake Center
01:30PM 38.1331 -110.7111 70° East 438 504 45,000  Level Salt Lake Center
01:31PM 38.1794 -110.5494 70° East 437 503 45,000  Level Salt Lake Center
01:32PM 38.2181 -110.4083 71° East 441 507 45,000  Level Salt Lake Center
01:32PM 38.2361 -110.3369 72° East 441 507 45,000  Level Denver Center
01:33PM 38.2742 -110.1981 71° East 436 502 45,000  Level Denver Center
01:34PM 38.3189 -110.0328 71° East 441 507 45,000  Level Denver Center
01:35PM 38.3583 -109.8939 70° East 438 504 45,000  Level Denver Center
01:36PM 38.4031 -109.7272 71° East 443 510 45,000  Level Denver Center
01:38PM 38.4408 -109.5836 71° East 445 512 45,000  Level Denver Center
01:39PM 38.4853 -109.4192 71° East 440 506 45,000  Level Denver Center
01:40PM 38.5233 -109.2750 71° East 446 513 45,000  Level Denver Center
01:41PM 38.5683 -109.1058 71° East 450 518 45,000  Level Denver Center
01:42PM 38.6053 -108.9639 72° East 441 507 45,000  Level Denver Center
01:43PM 38.6486 -108.7983 71° East 441 507 45,000  Level Denver Center
01:44PM 38.6856 -108.6547 72° East 443 510 45,000  Level Denver Center
01:45PM 38.7297 -108.4858 71° East 449 517 45,000  Level Denver Center
01:46PM 38.7667 -108.3397 72° East 451 519 45,000  Level Denver Center
01:47PM 38.8169 -108.1444 72° East 454 522 45,000  Level Denver Center
01:48PM 38.8617 -107.9714 72° East 461 531 45,000  Level Denver Center
01:49PM 38.9050 -107.7978 72° East 459 528 45,000  Level Denver Center
01:50PM 38.9481 -107.6267 72° East 454 522 45,000  Level Denver Center
01:51PM 38.9833 -107.4817 73° East 450 518 45,000  Level Denver Center
01:52PM 39.0208 -107.3317 72° East 461 531 45,000  Level Denver Center
01:53PM 39.0644 -107.1539 72° East 468 539 45,000  Level Denver Center
01:54PM 39.1086 -106.9764 72° East 468 539 45,000  Level Denver Center
01:56PM 39.1450 -106.8256 73° East 464 534 45,000  Level Denver Center
01:57PM 39.1861 -106.6492 73° East 462 532 45,000  Level Denver Center
01:58PM 39.2211 -106.4992 73° East 458 527 45,000  Level Denver Center
01:59PM 39.2675 -106.3267 71° East 454 522 45,000  Level Denver Center
02:00PM 39.3217 -106.1858 64° Northeast 455 524 45,000  Level Denver Center
02:01PM 39.3808 -106.0286 64° Northeast 456 525 45,000  Level Denver Center
02:02PM 39.4350 -105.8814 64° Northeast 455 524 45,000  Level Denver Center
02:03PM 39.4911 -105.7306 64° Northeast 460 529 45,000  Level Denver Center
02:04PM 39.5436 -105.5814 65° Northeast 453 521 45,000  Level Denver Center
02:05PM 39.6192 -105.3728 65° Northeast 457 526 45,000  Level Denver Center
02:06PM 39.6611 -105.2511 66° East 457 526 45,000  Level Denver Center
02:07PM 39.7075 -105.0619 72° East 454 522 45,000  Level Denver Center
02:08PM 39.7419 -104.8958 75° East 469 540 45,000  Level Denver Center
02:09PM 39.7797 -104.7319 73° East 466 536 45,000  Level Denver Center
02:10PM 39.8139 -104.5633 75° East 464 534 45,000  Level Denver Center
02:11PM 39.8481 -104.3947 75° East 465 535 45,000  Level Denver Center
02:12PM 39.8825 -104.2269 75° East 475 547 45,000  Level Denver Center
02:13PM 39.9094 -104.0961 75° East 468 539 45,000  Level Denver Center
02:14PM 39.9564 -103.8664 75° East 467 537 45,000  Level Denver Center
02:16PM 39.9906 -103.7008 75° East 466 536 45,000  Level Denver Center
02:17PM 40.0306 -103.5008 75° East 478 550 45,000  Level Denver Center
02:18PM 40.0642 -103.3342 75° East 475 547 45,000  Level Denver Center
02:19PM 40.0978 -103.1656 75° East 481 554 45,000  Level Denver Center
02:20PM 40.1306 -102.9986 76° East 477 549 45,000  Level Denver Center
02:21PM 40.1692 -102.7956 76° East 481 554 45,000  Level Denver Center
02:22PM 40.1994 -102.6406 76° East 478 550 45,000  Level Denver Center
02:23PM 40.2408 -102.4247 76° East 480 552 45,000  Level Denver Center
02:24PM 40.2767 -102.2356 76° East 480 552 45,000  Level Denver Center
02:25PM 40.3014 -102.0992 77° East 482 555 45,000  Level Denver Center
02:26PM 40.3425 -101.8833 76° East 481 554 45,000  Level Denver Center
02:27PM 40.3675 -101.7475 76° East 481 554 45,000  Level Denver Center
02:28PM 40.4069 -101.5300 77° East 480 552 45,000  Level Denver Center
02:29PM 40.4367 -101.3642 77° East 487 560 45,000  Level Denver Center
02:30PM 40.4658 -101.2017 77° East 483 556 45,000  Level Denver Center
02:32PM 40.5042 -100.9833 77° East 483 556 45,000  Level Denver Center
02:33PM 40.5381 -100.7906 77° East 488 562 45,000  Level Denver Center
02:34PM 40.5675 -100.6258 77° East 489 563 45,000  Level Denver Center
02:35PM 40.6008 -100.4339 77° East 488 562 45,000  Level Denver Center
02:36PM 40.6294 -100.2683 77° East 488 562 45,000  Level Denver Center
02:37PM 40.6611 -100.0756 78° East 485 558 45,000  Level Denver Center
02:38PM 40.6889 -99.9103 77° East 483 556 45,000  Level Denver Center
02:39PM 40.7183 -99.7308 78° East 484 557 45,000  Level Denver Center
02:40PM 40.7464 -99.5583 78° East 483 556 45,000  Level Denver Center
02:40PM 40.7692 -99.4214 78° East 484 557 45,000  Level Minneapolis Center
02:41PM 40.7972 -99.2497 78° East 482 555 45,000  Level Minneapolis Center
02:42PM 40.8072 -99.1797 79° East 482 555 45,000  Level Denver Center
02:42PM 40.8222 -99.0875 78° East 483 556 45,000  Level Minneapolis Center
02:44PM 40.8481 -98.9142 79° East 482 555 45,000  Level Minneapolis Center
02:45PM 40.8814 -98.7053 78° East 484 557 45,000  Level Minneapolis Center
02:46PM 40.9086 -98.5308 78° East 485 558 45,000  Level Minneapolis Center
02:47PM 40.9347 -98.3539 79° East 483 556 45,000  Level Minneapolis Center
02:48PM 40.9617 -98.1786 78° East 487 560 45,000  Level Minneapolis Center
02:49PM 40.9886 -98.0050 78° East 486 559 45,000  Level Minneapolis Center
02:50PM 41.0144 -97.8292 79° East 487 560 45,000  Level Minneapolis Center
02:51PM 41.0439 -97.6211 79° East 484 557 45,000  Level Minneapolis Center
02:52PM 41.0689 -97.4467 79° East 483 556 45,000  Level Minneapolis Center
02:53PM 41.0928 -97.2733 80° East 481 554 45,000  Level Minneapolis Center
02:54PM 41.1178 -97.0975 79° East 482 555 45,000  Level Minneapolis Center
02:55PM 41.1428 -96.9233 79° East 484 557 45,000  Level Minneapolis Center
02:56PM 41.1678 -96.7483 79° East 484 557 45,000  Level Minneapolis Center
02:57PM 41.1953 -96.5350 80° East 488 562 45,000  Level Minneapolis Center
02:58PM 41.2203 -96.3572 79° East 488 562 45,000  Level Minneapolis Center
02:59PM 41.2431 -96.1783 80° East 491 565 45,000  Level Minneapolis Center
03:00PM 41.2667 -95.9986 80° East 493 567 45,000  Level Minneapolis Center
03:01PM 41.2875 -95.8200 81° East 490 564 45,000  Level Minneapolis Center
03:02PM 41.3139 -95.6214 80° East 490 564 45,000  Level Minneapolis Center
03:03PM 41.3361 -95.4436 80° East 491 565 45,000  Level Minneapolis Center
03:04PM 41.3583 -95.2658 80° East 489 563 45,000  Level Minneapolis Center
03:05PM 41.3811 -95.0850 80° East 494 568 45,000  Level Minneapolis Center
03:06PM 41.4067 -94.8700 81° East 492 566 45,000  Level Minneapolis Center
03:07PM 41.4286 -94.6897 81° East 494 568 45,000  Level Minneapolis Center
03:08PM 41.4500 -94.5086 81° East 494 568 45,000  Level Minneapolis Center
03:09PM 41.4711 -94.3289 81° East 492 566 45,000  Level Minneapolis Center
03:10PM 41.4919 -94.1275 82° East 493 567 45,000  Level Minneapolis Center
03:11PM 41.5128 -93.9481 81° East 493 567 45,000  Level Minneapolis Center
03:12PM 41.5336 -93.7656 81° East 498 573 45,000  Level Minneapolis Center
03:14PM 41.5539 -93.5822 82° East 500 575 45,000  Level Minneapolis Center
03:15PM 41.5736 -93.3975 82° East 504 580 45,000  Level Minneapolis Center
03:16PM 41.5933 -93.2122 82° East 506 582 45,000  Level Minneapolis Center
03:17PM 41.6164 -92.9914 82° East 504 580 45,000  Level Minneapolis Center
03:18PM 41.6353 -92.8047 82° East 507 583 45,000  Level Minneapolis Center
03:18PM 41.6403 -92.7467 83° East 510 587 45,000  Level Chicago Center
03:19PM 41.6622 -92.5292 82° East 502 578 45,000  Level Chicago Center
03:20PM 41.6811 -92.3431 82° East 509 586 45,000  Level Chicago Center
03:21PM 41.6989 -92.1567 83° East 512 589 45,000  Level Chicago Center
03:22PM 41.7161 -91.9692 83° East 512 589 45,000  Level Chicago Center
03:23PM 41.7369 -91.7453 83° East 511 588 45,000  Level Chicago Center
03:24PM 41.7539 -91.5594 83° East 509 586 45,000  Level Chicago Center
03:25PM 41.7711 -91.3725 83° East 512 589 45,000  Level Chicago Center
03:26PM 41.7869 -91.1850 83° East 513 590 45,000  Level Chicago Center
03:27PM 41.8056 -90.9611 84° East 510 587 45,000  Level Chicago Center
03:28PM 41.8214 -90.7786 83° East 501 577 45,000  Level Chicago Center
03:29PM 41.8369 -90.5939 83° East 503 579 45,000  Level Chicago Center
03:31PM 41.8517 -90.4075 84° East 506 582 45,000  Level Chicago Center
03:32PM 41.8669 -90.2203 84° East 509 586 45,000  Level Chicago Center
03:33PM 41.8817 -89.9950 85° East 511 588 45,000  Level Chicago Center
03:34PM 41.8967 -89.8208 83° East 512 589 45,000  Level Chicago Center
03:35PM 41.9108 -89.6317 84° East 511 588 45,000  Level Chicago Center
03:36PM 41.9281 -89.4022 84° East 519 597 45,000  Level Chicago Center
03:37PM 41.9403 -89.2131 85° East 510 587 45,000  Level Chicago Center
03:38PM 41.9536 -89.0233 85° East 513 590 45,000  Level Chicago Center
03:39PM 41.9661 -88.8306 85° East 520 598 45,000  Level Chicago Center
03:40PM 41.9786 -88.6383 85° East 518 596 45,000  Level Chicago Center
03:41PM 41.9922 -88.4092 85° East 513 590 45,000  Level Chicago Center
03:42PM 42.0044 -88.2158 85° East 518 596 45,000  Level Chicago Center
03:43PM 42.0156 -88.0231 85° East 517 595 45,000  Level Chicago Center
03:44PM 42.0267 -87.8289 86° East 519 597 45,000  Level Chicago Center
03:45PM 42.0369 -87.6372 86° East 516 594 45,000  Level Chicago Center
03:46PM 42.0472 -87.4419 86° East 522 601 45,000  Level Chicago Center
03:47PM 42.0592 -87.2097 86° East 520 598 45,000  Level Chicago Center
03:48PM 42.0683 -87.0194 86° East 515 593 45,000  Level Chicago Center
03:49PM 42.0789 -86.8253 86° East 521 600 45,000  Level Chicago Center
03:50PM 42.0875 -86.6439 86° East 519 597 45,000  Level Chicago Center
03:51PM 42.0956 -86.4517 87° East 516 594 45,000  Level Chicago Center
03:52PM 42.1053 -86.2203 87° East 515 593 45,000  Level Chicago Center
03:53PM 42.1133 -86.0247 87° East 520 598 45,000  Level Chicago Center
03:54PM 42.1206 -85.8472 87° East 519 597 45,000  Level Chicago Center
03:55PM 42.1294 -85.6144 87° East 524 603 45,000  Level Chicago Center
03:56PM 42.1358 -85.4206 87° East 523 602 45,000  Level Chicago Center
03:57PM 42.1436 -85.2253 87° East 525 604 45,000  Level Chicago Center
03:58PM 42.1508 -85.0297 87° East 525 604 45,000  Level Chicago Center
04:00PM 42.1569 -84.8392 87° East 515 593 45,000  Level Chicago Center
04:01PM 42.1597 -84.6078 89° East 517 595 45,000  Level Chicago Center
04:02PM 42.1572 -84.4122 91° East 523 602 45,000  Level Chicago Center
04:02PM 42.1517 -84.2469 93° East 515 593 45,000  Level Cleveland Center
04:03PM 42.1472 -84.0506 92° East 515 593 45,000  Level Cleveland Center
04:04PM 42.1425 -83.8597 92° East 520 598 45,000  Level Cleveland Center
04:05PM 42.1372 -83.6719 92° East 520 598 45,000  Level Cleveland Center
04:06PM 42.1378 -83.4953 90° East 515 593 45,000  Level Cleveland Center
04:07PM 42.1325 -83.2853 92° East 515 593 45,000  Level Cleveland Center
04:08PM 42.1239 -83.1056 94° East 520 598 45,000  Level Cleveland Center
04:09PM 42.1217 -82.9208 91° East 515 593 45,000  Level Cleveland Center
04:10PM 42.1172 -82.7275 92° East 515 593 45,000  Level Cleveland Center
04:11PM 42.1122 -82.5342 92° East 515 593 45,000  Level Cleveland Center
04:12PM 42.1006 -82.3461 95° East 509 586 45,000  Level Cleveland Center
04:13PM 42.0950 -82.1586 92° East 509 586 45,000  Level Cleveland Center
04:14PM 42.0894 -81.9514 92° East 504 580 45,000  Level Cleveland Center
04:15PM 42.0850 -81.7833 92° East 504 580 45,000  Level Cleveland Center
04:16PM 42.0764 -81.5931 93° East 504 580 45,000  Level Cleveland Center
04:17PM 42.0675 -81.3969 93° East 511 588 45,000  Level Cleveland Center
04:18PM 42.0603 -81.2125 93° East 516 594 45,000  Level Cleveland Center
04:19PM 42.0508 -81.0025 93° East 516 594 45,000  Level Cleveland Center
04:20PM 42.0411 -80.8125 94° East 516 594 45,000  Level Cleveland Center
04:21PM 42.0350 -80.6222 92° East 509 586 45,000  Level Cleveland Center
04:22PM 42.0244 -80.4350 94° East 504 580 45,000  Level Cleveland Center
04:23PM 42.0158 -80.2478 93° East 504 580 45,000 -120 Level Cleveland Center
04:24PM 42.0067 -80.0606 94° East 498 573 44,800 -900 Descending Cleveland Center
04:25PM 41.9953 -79.8764 95° East 495 570 43,300 -1,500 Descending Cleveland Center
04:26PM 41.9836 -79.6892 95° East 500 575 41,800 -1,500 Descending Cleveland Center
04:27PM 41.9758 -79.5022 93° East 500 575 40,300 -1,500 Descending Cleveland Center
04:28PM 41.9614 -79.3183 96° East 493 567 38,800 -1,500 Descending Cleveland Center
04:29PM 41.9508 -79.1369 94° East 493 567 37,300 -1,560 Descending Cleveland Center
04:30PM 41.9381 -78.9503 95° East 493 567 35,700 -1,200 Descending Cleveland Center
04:31PM 41.9289 -78.7606 94° East 499 574 35,000 -360 Descending Cleveland Center
04:32PM 41.9153 -78.5742 96° East 499 574 35,000  Level Cleveland Center
04:33PM 41.9014 -78.3875 96° East 499 574 35,000  Level Cleveland Center
04:35PM 41.8825 -78.1036 95° East 506 582 35,000  Level New York Center
04:36PM 41.8647 -77.9150 97° East 506 582 35,000  Level New York Center
04:37PM 41.8314 -77.7386 104° East 506 582 35,000  Level New York Center
04:38PM 41.7875 -77.5644 109° East 501 577 35,000  Level New York Center
04:39PM 41.7431 -77.3931 109° East 489 563 35,000 -720 Level New York Center
04:40PM 41.6983 -77.2217 109° East 489 563 33,700 -1,440 Descending New York Center
04:41PM 41.6511 -77.0533 111° Southeast 482 555 32,200 -1,620 Descending New York Center
04:42PM 41.6058 -76.8828 109° East 482 555 30,500 -1,800 Descending New York Center
04:43PM 41.5581 -76.7119 110° East 482 555 28,700 -1,740 Descending New York Center
04:44PM 41.5161 -76.5531 109° East 487 560 27,100 -1,680 Descending New York Center
04:45PM 41.4697 -76.3883 111° Southeast 482 555 25,400 -1,740 Descending New York Center
04:46PM 41.4236 -76.2158 110° East 482 555 23,700 -1,680 Descending New York Center
04:47PM 41.3731 -76.0458 112° Southeast 467 537 22,100 -1,620 Descending New York Center
04:48PM 41.3336 -75.9019 110° East 438 504 20,500 -1,620 Descending New York Center
04:49PM 41.2900 -75.7522 111° Southeast 425 489 18,900 -1,800 Descending New York Center
04:50PM 41.2478 -75.6139 112° Southeast 420 483 16,900 -2,100 Descending New York Center
04:51PM 41.2089 -75.4953 114° Southeast 393 452 14,800 -2,040 Descending New York Center
04:52PM 41.1678 -75.3739 114° Southeast 372 428 12,900 -2,040 Descending New York Center
04:53PM 41.1286 -75.2556 114° Southeast 329 379 10,800 -2,220 Descending New York Center
04:54PM 41.0967 -75.1597 114° Southeast 300 345 8,500 -2,100 Descending New York Center
04:55PM 41.0664 -75.0753 115° Southeast 285 328 6,800 -1,320 Descending New York Center
04:56PM 41.0344 -74.9853 115° Southeast 278 320 6,000 -420 Descending New York Center
04:57PM 40.9853 -74.8969 126° Southeast 273 314 6,000 -780 Level New York Center
04:58PM 40.9442 -74.8258 127° Southeast 273 314 4,500 -1,500 Descending New York Center
04:59PM 40.8989 -74.7461 127° Southeast 259 298 3,000 -780 Descending New York Center
05:00PM 40.8614 -74.6808 127° Southeast 254 292 3,000  Level New York Center
05:01PM 40.8167 -74.6167 133° Southeast 245 282 3,100  Climbing New York TRACON
05:02PM 40.7833 -74.5500 123° Southeast 247 284 3,100  Level New York TRACON
05:03PM 40.7333 -74.4667 128° Southeast 248 285 3,100 -300 Level New York TRACON
05:04PM 40.7000 -74.4000 123° Southeast 252 290 2,600 -540 Descending New York TRACON
05:05PM 40.7167 -74.3167 75° East 216 249 2,100 -300 Descending New York TRACON
05:06PM 40.7333 -74.2500 72° East 205 236 2,100 -300 Level New York TRACON
05:07PM 40.7667 -74.2000 49° Northeast 163 188 1,600 -300 Descending New York TRACON
05:08PM 40.7833 -74.1500 66° East 152 175 1,600 -300 Level New York TRACON
05:09PM 40.8167 -74.1167 37° Northeast 118 136 1,000 -660 Descending New York TRACON
05:10PM 40.8333 -74.0833 57° Northeast 107 123 300 -720 Descending New York TRACON
05:12PM 40.8500 -74.0500 59° Northeast  Level FlightAware Approximate
05:19PM 40.8501 -74.0608 59° Northeast  Level Estimated